Terminal Aerodrome Forecast
Issued by NWS

Home | Current Version | Previous Version | Text Only | Print | Product List | Glossary On
Versions: 1 2 3 4 5 6 7 8 9 10 11 12 13 14 15 16 17
973
FTUS46 KEKA 022009 CCB
TAFCEC
TAF COR
KCEC 022009Z 0219/0318 19012KT 6SM BR SCT009 BKN015
      TEMPO 0220/0222 BKN009
     FM030100 21007KT 6SM BR SCT003 OVC250
     FM030200 16005KT 4SM BR OVC003
     FM030900 35003KT 3SM -DZ SCT003 BKN015 OVC025=

USA.gov is the U.S. government's official web portal to all federal, state and local government web resources and services.